createdAt,value
2019-05-14T00:02:04.111Z,58.38
2019-05-14T00:04:34.095Z,59.70
2019-05-14T00:07:04.019Z,59.03
2019-05-14T00:09:33.891Z,59.76
2019-05-14T00:12:03.958Z,58.45
2019-05-14T00:14:39.787Z,58.46
2019-05-14T00:17:07.366Z,58.98
2019-05-14T00:19:37.315Z,58.95
2019-05-14T00:22:07.369Z,59.61
2019-05-14T00:24:37.244Z,59.43
2019-05-14T00:27:07.369Z,59.82
2019-05-14T00:29:37.271Z,60.53
2019-05-14T00:32:11.114Z,62.48
2019-05-14T00:34:42.519Z,61.66
2019-05-14T00:37:12.059Z,61.32
2019-05-14T00:39:42.103Z,61.04
2019-05-14T00:42:12.764Z,60.71
2019-05-14T00:44:54.301Z,61.52
2019-05-14T00:47:14.556Z,62.24
2019-05-14T00:49:44.457Z,63.20
2019-05-14T00:52:14.380Z,63.60
2019-05-14T00:54:44.313Z,63.26
2019-05-14T00:57:14.313Z,63.71
2019-05-14T00:59:44.242Z,64.53
2019-05-14T01:02:14.226Z,64.61
2019-05-14T01:04:44.051Z,64.79
2019-05-14T01:07:14.034Z,65.58
2019-05-14T01:09:43.961Z,64.81
2019-05-14T01:12:13.957Z,64.78
2019-05-14T01:14:43.890Z,64.78
2019-05-14T01:17:13.906Z,65.81
2019-05-14T01:19:43.897Z,66.01
2019-05-14T01:22:13.896Z,66.00
2019-05-14T01:24:43.739Z,66.72
2019-05-14T01:27:14.624Z,67.15
2019-05-14T01:29:44.535Z,67.25
2019-05-14T01:32:14.542Z,66.90
2019-05-14T01:34:44.552Z,66.84
2019-05-14T01:37:14.368Z,66.06
2019-05-14T01:39:44.263Z,65.11
2019-05-14T01:42:14.430Z,65.16
2019-05-14T01:44:44.594Z,65.75
2019-05-14T01:47:14.563Z,66.15
2019-05-14T01:49:44.508Z,66.33
2019-05-14T01:52:14.328Z,65.67
2019-05-14T01:54:44.295Z,67.02
2019-05-14T01:57:14.181Z,66.60
2019-05-14T01:59:44.076Z,67.48
2019-05-14T02:02:14.059Z,67.44
2019-05-14T02:04:43.897Z,68.39
2019-05-14T02:07:16.135Z,68.03
2019-05-14T02:09:46.020Z,68.48
2019-05-14T02:12:17.067Z,68.59
2019-05-14T02:14:46.948Z,69.04
2019-05-14T02:17:16.854Z,69.54
2019-05-14T02:19:46.768Z,69.52
2019-05-14T02:22:18.639Z,69.50
2019-05-14T02:24:51.916Z,69.77
2019-05-14T02:27:21.949Z,70.33
2019-05-14T02:29:52.075Z,69.99
2019-05-14T02:32:22.054Z,69.71
2019-05-14T02:34:51.964Z,69.11
2019-05-14T02:37:21.858Z,68.44
2019-05-14T02:39:51.945Z,68.27
2019-05-14T02:42:22.767Z,69.35
2019-05-14T02:44:52.744Z,68.53
2019-05-14T02:47:22.711Z,68.54
2019-05-14T02:49:52.550Z,67.62
2019-05-14T02:52:22.447Z,67.11
2019-05-14T02:54:52.448Z,67.81
2019-05-14T02:57:22.283Z,68.80
2019-05-14T02:59:52.290Z,69.31
2019-05-14T03:02:22.270Z,69.57
2019-05-14T03:04:52.352Z,69.16
2019-05-14T03:07:22.331Z,68.69
2019-05-14T03:09:52.294Z,69.44
2019-05-14T03:12:22.256Z,70.54
2019-05-14T03:14:52.288Z,70.89
2019-05-14T03:17:22.181Z,71.13
2019-05-14T03:19:53.147Z,71.62
2019-05-14T03:22:28.523Z,71.51
2019-05-14T03:24:54.801Z,71.64
2019-05-14T03:27:24.688Z,71.56
2019-05-14T03:29:54.670Z,71.80
2019-05-14T03:32:24.660Z,71.39
2019-05-14T03:34:55.034Z,71.17
2019-05-14T03:37:24.951Z,70.50
2019-05-14T03:39:54.842Z,70.20
2019-05-14T03:42:24.886Z,70.45
2019-05-14T03:44:54.873Z,70.61
2019-05-14T03:47:24.873Z,70.61
2019-05-14T03:49:54.852Z,70.57
2019-05-14T03:52:24.822Z,70.41
2019-05-14T03:55:00.122Z,70.73
2019-05-14T03:57:29.261Z,70.72
2019-05-14T04:00:00.054Z,70.36
2019-05-14T04:02:30.445Z,70.31
2019-05-14T04:05:00.811Z,70.23
2019-05-14T04:07:32.393Z,69.92
2019-05-14T04:10:03.477Z,69.59
2019-05-14T04:12:40.207Z,68.63
2019-05-14T04:15:09.772Z,68.67
2019-05-14T04:17:42.471Z,68.38
2019-05-14T04:20:13.071Z,68.73
2019-05-14T04:22:44.508Z,69.66
2019-05-14T04:25:14.568Z,70.26
2019-05-14T04:27:49.481Z,70.12
2019-05-14T04:30:23.766Z,70.15
2019-05-14T04:32:52.159Z,70.38
2019-05-14T04:35:22.643Z,71.07
2019-05-14T04:37:52.720Z,70.29
2019-05-14T04:40:22.816Z,69.86
2019-05-14T04:42:53.868Z,69.72
2019-05-14T04:45:23.914Z,69.45
2019-05-14T04:47:54.008Z,69.78
2019-05-14T04:50:25.602Z,69.61
2019-05-14T04:52:56.034Z,69.35
2019-05-14T04:55:29.466Z,67.49
2019-05-14T04:57:59.134Z,67.48
2019-05-14T05:00:30.539Z,66.72
2019-05-14T05:03:01.762Z,65.82
2019-05-14T05:05:31.694Z,66.29
2019-05-14T05:08:01.757Z,66.80
2019-05-14T05:10:31.743Z,66.13
2019-05-14T05:13:01.750Z,64.93
2019-05-14T05:15:31.686Z,65.16
2019-05-14T05:18:01.776Z,64.45
2019-05-14T05:20:31.675Z,63.70
2019-05-14T05:23:01.711Z,62.69
2019-05-14T05:25:31.872Z,61.18
2019-05-14T05:28:02.373Z,61.11
2019-05-14T05:30:32.355Z,60.27
2019-05-14T05:33:02.232Z,57.82
2019-05-14T05:35:32.056Z,57.96
2019-05-14T05:38:02.095Z,55.74
2019-05-14T05:40:31.949Z,56.09
2019-05-14T05:43:01.934Z,54.66
2019-05-14T05:45:31.904Z,53.39
2019-05-14T05:48:02.026Z,52.00
2019-05-14T05:50:32.105Z,49.95
2019-05-14T05:53:01.936Z,50.78
2019-05-14T05:55:31.832Z,50.61
2019-05-14T05:58:01.911Z,50.86
2019-05-14T06:00:39.918Z,49.55
2019-05-14T06:03:10.925Z,48.36
2019-05-14T06:05:40.633Z,50.54
2019-05-14T06:08:10.675Z,49.06
2019-05-14T06:10:40.605Z,47.66
2019-05-14T06:13:13.829Z,48.92
2019-05-14T06:15:47.889Z,49.47
2019-05-14T06:18:18.303Z,49.05
2019-05-14T06:20:45.548Z,46.82
2019-05-14T06:23:15.444Z,47.35
2019-05-14T06:25:45.402Z,49.75
2019-05-14T06:28:15.320Z,47.54
2019-05-14T06:30:45.380Z,47.44
2019-05-14T06:33:15.256Z,45.95
2019-05-14T06:35:45.177Z,46.75
2019-05-14T06:38:15.046Z,46.99
2019-05-14T06:40:44.947Z,46.33
2019-05-14T06:43:14.842Z,46.57
2019-05-14T06:45:44.784Z,47.30
2019-05-14T06:48:26.921Z,45.53
2019-05-14T06:50:46.332Z,46.70
2019-05-14T06:53:19.246Z,45.37
2019-05-14T06:55:48.491Z,44.76
2019-05-14T06:58:20.110Z,44.67
2019-05-14T07:00:50.733Z,45.66
2019-05-14T07:03:20.649Z,43.64
2019-05-14T07:05:50.552Z,43.16
2019-05-14T07:08:20.478Z,43.69
2019-05-14T07:10:50.457Z,43.53
2019-05-14T07:13:20.403Z,42.85
2019-05-14T07:15:50.452Z,42.57
2019-05-14T07:18:20.530Z,41.36
2019-05-14T07:20:50.374Z,41.50
2019-05-14T07:23:20.514Z,40.92
2019-05-14T07:25:50.496Z,41.39
2019-05-14T07:28:20.520Z,40.06
2019-05-14T07:30:50.432Z,40.26
2019-05-14T07:33:20.399Z,39.52
2019-05-14T07:35:50.228Z,40.30
2019-05-14T07:38:20.184Z,39.63
2019-05-14T07:40:50.147Z,37.93
2019-05-14T07:43:20.018Z,38.54
2019-05-14T07:45:49.921Z,37.74
2019-05-14T07:48:20.883Z,37.84
2019-05-14T07:50:52.076Z,39.24
2019-05-14T07:53:35.286Z,38.47
2019-05-14T07:55:53.738Z,38.11
2019-05-14T07:58:23.695Z,37.06
2019-05-14T08:00:53.705Z,35.30
2019-05-14T08:03:23.640Z,34.44
2019-05-14T08:05:53.522Z,33.45
2019-05-14T08:08:23.474Z,34.00
2019-05-14T08:10:53.299Z,32.06
2019-05-14T08:13:23.238Z,33.10
2019-05-14T08:15:53.296Z,32.67
2019-05-14T08:18:23.205Z,32.13
2019-05-14T08:20:53.209Z,33.80
2019-05-14T08:23:23.133Z,33.94
2019-05-14T08:25:53.059Z,33.67
2019-05-14T08:28:22.882Z,32.20
2019-05-14T08:30:52.737Z,33.45
2019-05-14T08:33:22.627Z,32.17
2019-05-14T08:35:52.654Z,33.14
2019-05-14T08:38:22.489Z,33.28
2019-05-14T08:40:52.434Z,33.79
2019-05-14T08:43:22.426Z,34.33
2019-05-14T08:45:52.333Z,33.67
2019-05-14T08:48:22.300Z,34.75
2019-05-14T08:50:52.169Z,35.74
2019-05-14T08:53:22.013Z,36.74
2019-05-14T08:55:51.932Z,36.94
2019-05-14T08:58:22.030Z,37.70
2019-05-14T09:00:51.952Z,37.89
2019-05-14T09:03:21.804Z,37.80
2019-05-14T09:05:51.753Z,37.67
2019-05-14T09:08:21.789Z,38.87
2019-05-14T09:10:51.687Z,38.57
2019-05-14T09:13:21.709Z,38.70
2019-05-14T09:15:51.619Z,38.31
2019-05-14T09:18:21.555Z,39.83
2019-05-14T09:20:51.469Z,40.48
2019-05-14T09:23:21.419Z,41.15
2019-05-14T09:25:53.331Z,42.00
2019-05-14T09:28:22.889Z,42.50
2019-05-14T09:30:52.852Z,41.91
2019-05-14T09:33:24.315Z,42.13
2019-05-14T09:36:09.869Z,41.69
2019-05-14T09:38:25.972Z,43.04
2019-05-14T09:41:08.305Z,44.36
2019-05-14T09:43:28.586Z,44.54
2019-05-14T09:45:58.902Z,44.60
2019-05-14T09:48:28.923Z,43.57
2019-05-14T09:50:58.836Z,44.20
2019-05-14T09:53:29.030Z,44.50
2019-05-14T09:55:59.085Z,44.51
2019-05-14T09:58:28.993Z,43.36
2019-05-14T10:00:59.291Z,39.98
2019-05-14T10:03:29.249Z,39.62
2019-05-14T10:05:59.302Z,41.96
2019-05-14T10:08:29.174Z,39.43
2019-05-14T10:11:00.205Z,39.39
2019-05-14T10:13:30.393Z,36.79
2019-05-14T10:16:00.388Z,38.78
2019-05-14T10:18:30.376Z,38.35
2019-05-14T10:21:00.429Z,39.92
2019-05-14T10:23:30.275Z,38.51
2019-05-14T10:26:00.422Z,38.84
2019-05-14T10:28:30.306Z,38.47
2019-05-14T10:31:03.651Z,38.27
2019-05-14T10:33:31.923Z,38.92
2019-05-14T10:36:02.024Z,38.74
2019-05-14T10:38:32.026Z,40.11
2019-05-14T10:41:02.081Z,36.98
2019-05-14T10:43:33.090Z,37.00
2019-05-14T10:46:03.109Z,35.21
2019-05-14T10:48:33.111Z,35.24
2019-05-14T10:51:03.847Z,33.61
2019-05-14T10:53:33.842Z,34.34
2019-05-14T10:56:03.805Z,32.88
2019-05-14T10:58:33.772Z,32.69
2019-05-14T11:01:03.667Z,33.31
2019-05-14T11:03:33.524Z,34.31
2019-05-14T11:06:03.503Z,34.09
2019-05-14T11:08:33.460Z,35.06
2019-05-14T11:11:04.186Z,37.65
2019-05-14T11:13:34.392Z,37.84
2019-05-14T11:16:04.369Z,37.99
2019-05-14T11:18:34.372Z,39.17
2019-05-14T11:21:18.841Z,41.31
2019-05-14T11:23:38.442Z,46.00
2019-05-14T11:26:09.227Z,47.63
2019-05-14T11:28:39.628Z,52.97
2019-05-14T11:31:09.856Z,54.49
2019-05-14T11:33:39.904Z,55.23
2019-05-14T11:36:09.919Z,52.52
2019-05-14T11:38:41.133Z,53.12
2019-05-14T11:41:11.193Z,53.56
2019-05-14T11:43:41.328Z,53.10
2019-05-14T11:46:11.292Z,48.67
2019-05-14T11:48:41.415Z,48.48
2019-05-14T11:51:11.428Z,48.76
2019-05-14T11:53:41.352Z,42.47
2019-05-14T11:56:11.224Z,41.53
2019-05-14T11:58:41.047Z,43.04
2019-05-14T12:01:11.000Z,41.62
2019-05-14T12:03:40.929Z,38.51
2019-05-14T12:06:10.890Z,37.92
2019-05-14T12:08:41.908Z,37.19
2019-05-14T12:11:12.065Z,37.76
2019-05-14T12:13:41.950Z,38.49
2019-05-14T12:16:11.923Z,38.28
2019-05-14T12:18:42.048Z,39.00
2019-05-14T12:21:11.935Z,36.70
2019-05-14T12:23:41.853Z,35.71
2019-05-14T12:26:11.843Z,35.55
2019-05-14T12:28:41.764Z,37.18
2019-05-14T12:31:11.682Z,36.67
2019-05-14T12:33:41.664Z,33.45
2019-05-14T12:36:11.587Z,33.55
2019-05-14T12:38:41.506Z,33.98
2019-05-14T12:41:11.512Z,36.49
2019-05-14T12:43:43.784Z,36.26
2019-05-14T12:46:13.084Z,36.00
2019-05-14T12:48:43.144Z,35.95
2019-05-14T12:51:13.103Z,36.04
2019-05-14T12:53:43.015Z,36.81
2019-05-14T12:56:12.864Z,37.03
2019-05-14T12:58:45.636Z,37.62
2019-05-14T13:01:14.444Z,38.75
2019-05-14T13:03:45.629Z,38.14
2019-05-14T13:06:15.498Z,40.51
2019-05-14T13:08:45.494Z,35.81
2019-05-14T13:11:15.589Z,37.40
2019-05-14T13:13:45.494Z,33.83
2019-05-14T13:16:15.459Z,34.64
2019-05-14T13:18:45.282Z,36.23
2019-05-14T13:21:15.116Z,34.41
2019-05-14T13:23:44.969Z,34.90
2019-05-14T13:26:14.881Z,32.68
2019-05-14T13:28:44.725Z,32.98
2019-05-14T13:31:14.719Z,35.61
2019-05-14T13:33:44.743Z,31.37
2019-05-14T13:36:14.670Z,30.42
2019-05-14T13:38:44.606Z,27.98
2019-05-14T13:41:14.611Z,29.51
2019-05-14T13:43:44.490Z,28.30
2019-05-14T13:46:15.299Z,29.75
2019-05-14T13:48:45.391Z,27.25
2019-05-14T13:51:15.381Z,26.93
2019-05-14T13:53:46.469Z,29.01
2019-05-14T13:56:18.937Z,34.52
2019-05-14T13:58:49.011Z,35.61
2019-05-14T14:01:19.585Z,38.66
2019-05-14T14:04:04.411Z,37.10
2019-05-14T14:06:21.368Z,37.31
2019-05-14T14:08:51.276Z,36.58
2019-05-14T14:11:21.219Z,37.05
2019-05-14T14:13:51.159Z,37.38
2019-05-14T14:16:22.173Z,34.66
2019-05-14T14:18:52.155Z,34.83
2019-05-14T14:21:22.183Z,33.47
2019-05-14T14:23:52.182Z,33.70
2019-05-14T14:26:22.178Z,35.37
2019-05-14T14:28:52.004Z,33.41
2019-05-14T14:31:21.922Z,35.47
2019-05-14T14:33:53.144Z,34.11
2019-05-14T14:36:23.183Z,34.86
2019-05-14T14:38:53.172Z,33.55
2019-05-14T14:41:23.175Z,33.40
2019-05-14T14:43:55.186Z,32.52
2019-05-14T14:46:24.805Z,31.38
2019-05-14T14:48:57.788Z,30.09
2019-05-14T14:51:28.512Z,30.45
2019-05-14T14:54:02.762Z,33.12
2019-05-14T14:56:29.780Z,36.20
2019-05-14T14:59:00.606Z,42.36
2019-05-14T15:01:30.582Z,44.01
2019-05-14T15:04:01.620Z,46.41
2019-05-14T15:06:31.543Z,48.38
2019-05-14T15:09:01.429Z,49.63
2019-05-14T15:11:32.910Z,51.02
2019-05-14T15:14:02.850Z,48.89
2019-05-14T15:16:33.580Z,45.69
2019-05-14T15:19:03.554Z,45.16
2019-05-14T15:21:33.443Z,41.71
2019-05-14T15:24:12.022Z,44.21
2019-05-14T15:26:35.038Z,41.19
2019-05-14T15:29:05.033Z,40.38
2019-05-14T15:31:35.022Z,40.26
2019-05-14T15:34:04.935Z,38.81
2019-05-14T15:36:34.921Z,38.87
2019-05-14T15:39:09.447Z,39.11
2019-05-14T15:41:39.363Z,38.62
2019-05-14T15:44:09.551Z,38.22
2019-05-14T15:46:41.994Z,37.44
2019-05-14T15:49:11.106Z,36.54
2019-05-14T15:51:41.138Z,36.91
2019-05-14T15:54:34.502Z,37.14
2019-05-14T15:56:42.900Z,38.02
2019-05-14T15:59:13.932Z,35.84
2019-05-14T16:01:43.909Z,36.07
2019-05-14T16:04:13.887Z,33.00
2019-05-14T16:06:43.896Z,33.42
2019-05-14T16:09:13.739Z,37.42
2019-05-14T16:11:43.741Z,36.74
2019-05-14T16:14:13.676Z,37.67
2019-05-14T16:16:43.581Z,37.75
2019-05-14T16:19:13.433Z,38.10
2019-05-14T16:21:43.362Z,36.99
2019-05-14T16:24:13.347Z,38.02
2019-05-14T16:26:43.184Z,38.33
2019-05-14T16:29:13.342Z,37.96
2019-05-14T16:31:43.823Z,38.18
2019-05-14T16:34:13.855Z,37.95
2019-05-14T16:36:43.792Z,38.51
2019-05-14T16:39:13.722Z,38.97
2019-05-14T16:41:43.811Z,39.63
2019-05-14T16:44:13.803Z,40.55
2019-05-14T16:46:43.816Z,41.00
2019-05-14T16:49:13.715Z,41.93
2019-05-14T16:51:43.702Z,41.42
2019-05-14T16:54:13.631Z,43.07
2019-05-14T16:56:43.621Z,43.01
2019-05-14T16:59:13.553Z,42.79
2019-05-14T17:01:43.477Z,42.93
2019-05-14T17:04:14.440Z,40.87
2019-05-14T17:06:44.353Z,39.35
2019-05-14T17:09:14.454Z,39.67
2019-05-14T17:11:44.443Z,37.86
2019-05-14T17:14:14.283Z,37.74
2019-05-14T17:16:44.402Z,37.91
2019-05-14T17:19:14.376Z,37.28
2019-05-14T17:21:44.213Z,36.16
2019-05-14T17:24:14.048Z,38.59
2019-05-14T17:26:43.962Z,38.83
2019-05-14T17:29:13.789Z,39.70
2019-05-14T17:31:43.705Z,38.52
2019-05-14T17:34:13.747Z,38.24
2019-05-14T17:36:43.600Z,37.23
2019-05-14T17:39:13.498Z,37.09
2019-05-14T17:41:43.488Z,37.53
2019-05-14T17:44:13.406Z,37.52
2019-05-14T17:46:44.186Z,38.51
2019-05-14T17:49:14.089Z,39.88
2019-05-14T17:51:44.022Z,41.57
2019-05-14T17:54:13.944Z,42.49
2019-05-14T17:56:43.950Z,43.21
2019-05-14T17:59:13.842Z,43.45
2019-05-14T18:01:43.756Z,43.93
2019-05-14T18:04:13.750Z,44.08
2019-05-14T18:06:43.711Z,44.76
2019-05-14T18:09:13.647Z,45.29
2019-05-14T18:11:43.567Z,45.92
2019-05-14T18:14:13.513Z,45.56
2019-05-14T18:16:43.436Z,45.37
2019-05-14T18:19:13.292Z,45.08
2019-05-14T18:21:43.303Z,46.15
2019-05-14T18:24:13.145Z,45.87
2019-05-14T18:26:43.051Z,46.37
2019-05-14T18:29:12.929Z,45.58
2019-05-14T18:31:44.773Z,47.13
2019-05-14T18:34:14.563Z,47.02
2019-05-14T18:36:44.522Z,47.08
2019-05-14T18:39:17.534Z,47.29
2019-05-14T18:41:46.059Z,47.79
2019-05-14T18:44:19.000Z,49.66
2019-05-14T18:46:48.803Z,49.31
2019-05-14T18:49:19.664Z,49.84
2019-05-14T18:51:50.789Z,50.09
2019-05-14T18:54:23.041Z,50.16
2019-05-14T18:56:52.986Z,51.27
2019-05-14T18:59:22.918Z,51.08
2019-05-14T19:01:53.952Z,51.98
2019-05-14T19:04:24.153Z,52.92
2019-05-14T19:06:54.071Z,53.00
2019-05-14T19:09:24.166Z,54.18
2019-05-14T19:11:54.068Z,54.86
2019-05-14T19:14:24.058Z,54.95
2019-05-14T19:16:53.902Z,55.55
2019-05-14T19:19:23.840Z,55.73
2019-05-14T19:21:53.729Z,56.21
2019-05-14T19:24:23.682Z,56.69
2019-05-14T19:26:53.576Z,56.86
2019-05-14T19:29:23.403Z,56.88
2019-05-14T19:31:53.405Z,57.13
2019-05-14T19:34:23.352Z,56.90
2019-05-14T19:36:53.340Z,56.84
2019-05-14T19:39:23.655Z,57.06
2019-05-14T19:41:53.599Z,56.76
2019-05-14T19:44:23.876Z,57.08
2019-05-14T19:46:53.793Z,57.26
2019-05-14T19:49:23.726Z,56.85
2019-05-14T19:51:53.659Z,57.57
2019-05-14T19:54:23.575Z,58.02
2019-05-14T19:56:57.461Z,57.37
2019-05-14T19:59:25.995Z,57.64
2019-05-14T20:01:56.006Z,57.94
2019-05-14T20:04:25.911Z,58.86
2019-05-14T20:06:57.023Z,59.74
2019-05-14T20:09:28.108Z,59.98
2019-05-14T20:11:58.296Z,60.92
2019-05-14T20:14:28.683Z,61.32
2019-05-14T20:16:58.910Z,61.67
2019-05-14T20:19:28.839Z,62.43
2019-05-14T20:21:59.814Z,62.18
2019-05-14T20:24:30.975Z,63.22
2019-05-14T20:27:08.352Z,63.51
2019-05-14T20:29:33.547Z,63.38
2019-05-14T20:32:03.495Z,63.45
2019-05-14T20:34:33.471Z,63.01
2019-05-14T20:37:03.915Z,63.19
2019-05-14T20:39:34.894Z,63.31
2019-05-14T20:42:04.879Z,63.56
2019-05-14T20:44:35.247Z,63.30
2019-05-14T20:47:05.249Z,63.80
2019-05-14T20:49:35.098Z,63.08
2019-05-14T20:52:05.088Z,62.98
2019-05-14T20:54:35.076Z,63.67
2019-05-14T20:57:19.721Z,64.26
2019-05-14T20:59:38.944Z,64.33
2019-05-14T21:02:08.675Z,65.32
2019-05-14T21:04:38.646Z,65.79
2019-05-14T21:07:08.630Z,65.54
2019-05-14T21:09:38.875Z,65.87
2019-05-14T21:12:08.954Z,66.37
2019-05-14T21:14:41.424Z,66.26
2019-05-14T21:17:10.517Z,65.58
2019-05-14T21:19:40.423Z,66.65
2019-05-14T21:22:10.279Z,66.26
2019-05-14T21:24:40.178Z,66.84
2019-05-14T21:27:10.178Z,66.41
2019-05-14T21:29:40.240Z,66.31
2019-05-14T21:32:10.179Z,66.35
2019-05-14T21:34:40.093Z,66.14
2019-05-14T21:37:09.992Z,66.51
2019-05-14T21:39:41.014Z,66.73
2019-05-14T21:42:12.081Z,66.36
2019-05-14T21:44:42.547Z,66.58
2019-05-14T21:47:12.540Z,66.51
2019-05-14T21:49:42.695Z,67.01
2019-05-14T21:52:12.522Z,66.63
2019-05-14T21:54:43.591Z,66.87
2019-05-14T21:57:13.559Z,66.42
2019-05-14T21:59:43.456Z,66.41
2019-05-14T22:02:24.460Z,66.59
2019-05-14T22:04:45.239Z,66.65
2019-05-14T22:07:15.717Z,66.72
2019-05-14T22:09:45.655Z,67.10
2019-05-14T22:12:15.632Z,66.82
2019-05-14T22:14:48.070Z,66.55
2019-05-14T22:17:17.341Z,65.96
2019-05-14T22:19:49.099Z,65.79
2019-05-14T22:22:39.355Z,65.87
2019-05-14T22:25:09.890Z,65.81
2019-05-14T22:27:39.782Z,66.06
2019-05-14T22:30:22.364Z,65.95
2019-05-14T22:32:52.249Z,66.68
2019-05-14T22:35:22.286Z,65.78
2019-05-14T22:37:52.309Z,65.80
2019-05-14T22:40:22.296Z,65.68
2019-05-14T22:42:52.128Z,65.57
2019-05-14T22:45:22.184Z,65.59
2019-05-14T22:47:52.027Z,64.95
2019-05-14T22:50:22.040Z,63.28
2019-05-14T22:52:51.994Z,60.31
2019-05-14T22:55:22.018Z,59.68
2019-05-14T22:57:51.944Z,58.33
2019-05-14T23:00:22.038Z,54.64
2019-05-14T23:02:51.962Z,55.64
2019-05-14T23:05:21.942Z,59.31
2019-05-14T23:07:52.012Z,60.83
2019-05-14T23:10:22.035Z,61.85
2019-05-14T23:12:51.853Z,61.59
2019-05-14T23:15:21.871Z,61.54
2019-05-14T23:17:51.786Z,61.81
2019-05-14T23:20:21.743Z,61.52
2019-05-14T23:22:51.589Z,62.45
2019-05-14T23:25:21.435Z,61.74
2019-05-14T23:27:51.435Z,60.94
2019-05-14T23:30:31.400Z,61.78
2019-05-14T23:33:01.602Z,61.92
2019-05-14T23:35:31.604Z,61.49
2019-05-14T23:38:01.638Z,61.72
2019-05-14T23:40:31.621Z,61.43
2019-05-14T23:43:01.535Z,60.92
2019-05-14T23:45:31.560Z,61.87
2019-05-14T23:48:01.602Z,61.82
2019-05-14T23:50:31.686Z,62.65
2019-05-14T23:53:01.589Z,62.86
2019-05-14T23:55:31.564Z,62.42
2019-05-14T23:58:01.682Z,62.39
